createdAt,value
2018-04-12T00:00:25.231Z,42.60
2018-04-12T00:00:56.962Z,42.60
2018-04-12T00:01:28.707Z,42.60
2018-04-12T00:02:00.466Z,42.60
2018-04-12T00:02:32.202Z,42.60
2018-04-12T00:03:03.967Z,42.50
2018-04-12T00:03:35.708Z,42.50
2018-04-12T00:04:07.446Z,42.50
2018-04-12T00:04:39.183Z,42.30
2018-04-12T00:05:10.941Z,42.30
2018-04-12T00:05:42.869Z,42.30
2018-04-12T00:06:14.625Z,42.50
2018-04-12T00:06:46.366Z,42.40
2018-04-12T00:07:18.100Z,42.40
2018-04-12T00:07:49.883Z,42.30
2018-04-12T00:08:21.630Z,42.30
2018-04-12T00:08:54.161Z,42.30
2018-04-12T00:09:25.894Z,42.30
2018-04-12T00:09:57.650Z,42.10
2018-04-12T00:10:29.405Z,42.20
2018-04-12T00:11:01.142Z,42.10
2018-04-12T00:11:32.954Z,42.00
2018-04-12T00:12:05.483Z,42.20
2018-04-12T00:12:37.204Z,42.20
2018-04-12T00:13:08.944Z,42.60
2018-04-12T00:13:40.707Z,42.20
2018-04-12T00:14:13.216Z,41.60
2018-04-12T00:14:45.075Z,42.00
2018-04-12T00:15:16.784Z,42.00
2018-04-12T00:15:48.546Z,42.10
2018-04-12T00:16:20.265Z,42.10
2018-04-12T00:16:52.806Z,42.10
2018-04-12T00:17:24.578Z,42.10
2018-04-12T00:17:56.325Z,42.10
2018-04-12T00:18:28.062Z,42.10
2018-04-12T00:18:59.845Z,41.90
2018-04-12T00:19:31.563Z,41.90
2018-04-12T00:20:03.549Z,42.50
2018-04-12T00:20:35.283Z,41.90
2018-04-12T00:21:07.027Z,42.00
2018-04-12T00:21:38.774Z,41.90
2018-04-12T00:22:10.523Z,42.00
2018-04-12T00:22:42.258Z,41.90
2018-04-12T00:23:14.003Z,41.90
2018-04-12T00:23:46.690Z,41.80
2018-04-12T00:24:18.435Z,41.80
2018-04-12T00:24:50.185Z,42.00
2018-04-12T00:25:21.921Z,42.10
2018-04-12T00:25:53.673Z,42.00
2018-04-12T00:26:25.433Z,41.90
2018-04-12T00:26:57.198Z,41.70
2018-04-12T00:27:28.939Z,41.80
2018-04-12T00:28:01.666Z,41.90
2018-04-12T00:28:33.383Z,41.80
2018-04-12T00:29:05.114Z,41.80
2018-04-12T00:29:36.864Z,41.80
2018-04-12T00:30:08.595Z,41.70
2018-04-12T00:30:40.339Z,41.90
2018-04-12T00:31:12.074Z,41.80
2018-04-12T00:31:44.591Z,41.80
2018-04-12T00:32:16.350Z,41.70
2018-04-12T00:32:48.102Z,41.70
2018-04-12T00:33:19.839Z,41.70
2018-04-12T00:33:51.594Z,41.70
2018-04-12T00:34:23.337Z,41.60
2018-04-12T00:34:55.089Z,41.80
2018-04-12T00:35:27.036Z,41.70
2018-04-12T00:35:58.781Z,41.60
2018-04-12T00:36:30.519Z,41.70
2018-04-12T00:37:02.258Z,41.50
2018-04-12T00:37:34.064Z,41.70
2018-04-12T00:38:06.548Z,41.60
2018-04-12T00:38:38.316Z,41.60
2018-04-12T00:39:10.057Z,41.70
2018-04-12T00:39:41.797Z,41.50
2018-04-12T00:40:13.557Z,41.60
2018-04-12T00:40:46.056Z,41.70
2018-04-12T00:41:17.803Z,41.70
2018-04-12T00:41:49.546Z,41.60
2018-04-12T00:42:21.368Z,41.60
2018-04-12T00:42:53.895Z,41.60
2018-04-12T00:43:25.646Z,41.60
2018-04-12T00:43:57.382Z,41.60
2018-04-12T00:44:29.113Z,41.50
2018-04-12T00:45:00.857Z,41.60
2018-04-12T00:45:32.594Z,41.20
2018-04-12T00:46:04.355Z,41.50
2018-04-12T00:46:36.094Z,41.70
2018-04-12T00:47:07.834Z,41.80
2018-04-12T00:47:39.581Z,41.70
2018-04-12T00:48:11.330Z,41.40
2018-04-12T00:48:43.067Z,41.40
2018-04-12T00:49:14.808Z,41.50
2018-04-12T00:49:46.558Z,41.50
2018-04-12T00:50:18.305Z,41.70
2018-04-12T00:50:50.042Z,41.60
2018-04-12T00:51:21.802Z,41.30
2018-04-12T00:51:53.563Z,41.60
2018-04-12T00:52:25.302Z,41.50
2018-04-12T00:52:57.055Z,41.20
2018-04-12T00:53:28.785Z,41.30
2018-04-12T00:54:00.540Z,41.40
2018-04-12T00:54:32.282Z,41.60
2018-04-12T00:55:04.049Z,41.80
2018-04-12T00:55:36.570Z,41.40
2018-04-12T00:56:08.306Z,41.30
2018-04-12T00:56:40.058Z,41.50
2018-04-12T00:57:11.796Z,41.40
2018-04-12T00:57:43.584Z,41.40
2018-04-12T00:58:15.307Z,41.90
2018-04-12T00:58:47.057Z,41.30
2018-04-12T00:59:18.792Z,41.40
2018-04-12T00:59:50.557Z,41.50
2018-04-12T01:00:23.062Z,41.70
2018-04-12T01:00:54.805Z,41.60
2018-04-12T01:01:26.556Z,41.70
2018-04-12T01:01:58.304Z,41.30
2018-04-12T01:02:30.035Z,41.20
2018-04-12T01:03:01.784Z,41.10
2018-04-12T01:03:33.527Z,41.20
2018-04-12T01:04:05.268Z,41.30
2018-04-12T01:04:37.019Z,41.50
2018-04-12T01:05:08.766Z,41.50
2018-04-12T01:05:40.535Z,41.60
2018-04-12T01:06:12.315Z,41.50
2018-04-12T01:06:44.308Z,41.50
2018-04-12T01:07:16.779Z,41.60
2018-04-12T01:07:48.534Z,41.50
2018-04-12T01:08:20.270Z,41.60
2018-04-12T01:08:52.021Z,41.40
2018-04-12T01:09:23.754Z,41.30
2018-04-12T01:09:55.529Z,41.40
2018-04-12T01:10:27.275Z,41.40
2018-04-12T01:10:59.011Z,41.50
2018-04-12T01:11:30.764Z,41.50
2018-04-12T01:12:02.522Z,41.60
2018-04-12T01:12:35.041Z,40.80
2018-04-12T01:13:06.786Z,40.80
2018-04-12T01:13:38.548Z,41.50
2018-04-12T01:14:10.265Z,40.90
2018-04-12T01:14:42.010Z,41.00
2018-04-12T01:15:13.757Z,41.20
2018-04-12T01:15:45.501Z,41.40
2018-04-12T01:16:17.238Z,41.30
2018-04-12T01:16:48.980Z,41.10
2018-04-12T01:17:20.726Z,41.30
2018-04-12T01:17:52.471Z,41.40
2018-04-12T01:18:24.202Z,41.40
2018-04-12T01:18:55.977Z,41.30
2018-04-12T01:19:27.735Z,41.20
2018-04-12T01:19:59.493Z,41.20
2018-04-12T01:20:31.240Z,41.30
2018-04-12T01:21:02.979Z,41.40
2018-04-12T01:21:34.737Z,41.10
2018-04-12T01:22:07.260Z,41.60
2018-04-12T01:22:39.195Z,40.90
2018-04-12T01:23:11.674Z,41.00
2018-04-12T01:23:43.416Z,41.00
2018-04-12T01:24:15.201Z,41.10
2018-04-12T01:24:47.714Z,40.80
2018-04-12T01:25:19.454Z,40.80
2018-04-12T01:25:51.204Z,40.80
2018-04-12T01:26:22.951Z,41.00
2018-04-12T01:26:54.895Z,41.20
2018-04-12T01:27:26.788Z,41.10
2018-04-12T01:27:58.535Z,40.70
2018-04-12T01:28:30.320Z,41.50
2018-04-12T01:29:02.812Z,41.20
2018-04-12T01:29:34.542Z,41.20
2018-04-12T01:30:06.294Z,41.20
2018-04-12T01:30:38.050Z,41.00
2018-04-12T01:31:09.795Z,40.90
2018-04-12T01:31:41.532Z,40.80
2018-04-12T01:32:13.310Z,40.70
2018-04-12T01:32:46.559Z,41.20
2018-04-12T01:33:18.305Z,41.10
2018-04-12T01:33:50.049Z,41.10
2018-04-12T01:34:21.794Z,40.80
2018-04-12T01:34:53.535Z,40.80
2018-04-12T01:35:25.281Z,40.50
2018-04-12T01:35:57.025Z,40.70
2018-04-12T01:36:28.776Z,41.00
2018-04-12T01:37:00.508Z,41.10
2018-04-12T01:37:32.256Z,41.20
2018-04-12T01:38:04.205Z,40.90
2018-04-12T01:38:35.956Z,41.00
2018-04-12T01:39:07.717Z,40.90
2018-04-12T01:39:39.477Z,41.10
2018-04-12T01:40:11.982Z,41.70
2018-04-12T01:40:43.719Z,41.10
2018-04-12T01:41:15.453Z,40.90
2018-04-12T01:41:47.198Z,41.00
2018-04-12T01:42:19.150Z,40.80
2018-04-12T01:42:51.652Z,40.90
2018-04-12T01:43:23.422Z,41.00
2018-04-12T01:43:55.145Z,40.80
2018-04-12T01:44:26.901Z,41.00
2018-04-12T01:44:58.643Z,40.90
2018-04-12T01:45:30.404Z,40.80
2018-04-12T01:46:02.914Z,40.70
2018-04-12T01:46:34.661Z,41.20
2018-04-12T01:47:06.369Z,41.20
2018-04-12T01:47:38.106Z,41.20
2018-04-12T01:48:10.623Z,41.20
2018-04-12T01:48:42.356Z,41.20
2018-04-12T01:49:14.099Z,41.00
2018-04-12T01:49:45.866Z,41.00
2018-04-12T01:50:17.602Z,41.00
2018-04-12T01:50:49.362Z,40.80
2018-04-12T01:51:21.115Z,41.00
2018-04-12T01:51:52.854Z,41.10
2018-04-12T01:52:24.599Z,41.00
2018-04-12T01:52:57.841Z,40.90
2018-04-12T01:53:29.744Z,40.90
2018-04-12T01:54:02.261Z,41.00
2018-04-12T01:54:34.002Z,41.00
2018-04-12T01:55:05.743Z,40.90
2018-04-12T01:55:37.510Z,40.80
2018-04-12T01:56:09.456Z,40.80
2018-04-12T01:56:41.209Z,40.80
2018-04-12T01:57:12.959Z,40.90
2018-04-12T01:57:44.687Z,40.70
2018-04-12T01:58:16.457Z,40.70
2018-04-12T01:58:48.200Z,40.80
2018-04-12T01:59:19.938Z,40.70
2018-04-12T01:59:51.745Z,40.70
2018-04-12T02:00:23.490Z,40.80
2018-04-12T02:00:55.215Z,40.70
2018-04-12T02:01:26.941Z,40.60
2018-04-12T02:01:59.460Z,40.80
2018-04-12T02:02:31.197Z,40.90
2018-04-12T02:03:02.934Z,40.80
2018-04-12T02:03:34.684Z,40.90
2018-04-12T02:04:06.470Z,40.80
2018-04-12T02:04:38.429Z,40.80
2018-04-12T02:05:11.031Z,40.80
2018-04-12T02:05:43.499Z,40.80
2018-04-12T02:06:15.234Z,40.70
2018-04-12T02:06:46.979Z,40.50
2018-04-12T02:07:18.716Z,40.60
2018-04-12T02:07:50.463Z,40.70
2018-04-12T02:08:22.212Z,40.70
2018-04-12T02:08:53.968Z,40.80
2018-04-12T02:09:25.696Z,40.60
2018-04-12T02:09:57.448Z,40.50
2018-04-12T02:10:29.181Z,40.70
2018-04-12T02:11:00.931Z,40.70
2018-04-12T02:11:32.678Z,40.70
2018-04-12T02:12:04.425Z,40.60
2018-04-12T02:12:36.179Z,40.60
2018-04-12T02:13:07.920Z,40.70
2018-04-12T02:13:39.645Z,40.60
2018-04-12T02:14:11.402Z,40.70
2018-04-12T02:14:43.127Z,40.50
2018-04-12T02:15:14.866Z,40.60
2018-04-12T02:15:46.605Z,40.50
2018-04-12T02:16:19.114Z,40.60
2018-04-12T02:16:50.856Z,40.60
2018-04-12T02:17:22.601Z,40.40
2018-04-12T02:17:54.328Z,40.50
2018-04-12T02:18:26.115Z,40.40
2018-04-12T02:18:57.872Z,40.50
2018-04-12T02:19:29.612Z,40.50
2018-04-12T02:20:01.369Z,40.40
2018-04-12T02:20:33.880Z,40.50
2018-04-12T02:21:05.614Z,40.50
2018-04-12T02:21:37.375Z,40.20
2018-04-12T02:22:09.115Z,40.40
2018-04-12T02:22:40.869Z,40.50
2018-04-12T02:23:12.602Z,40.50
2018-04-12T02:23:45.098Z,40.40
2018-04-12T02:24:16.835Z,40.40
2018-04-12T02:24:48.594Z,40.50
2018-04-12T02:25:20.326Z,40.60
2018-04-12T02:25:52.076Z,41.40
2018-04-12T02:26:23.850Z,40.50
2018-04-12T02:26:55.549Z,40.70
2018-04-12T02:27:27.296Z,40.90
2018-04-12T02:27:59.048Z,40.80
2018-04-12T02:28:30.964Z,40.80
2018-04-12T02:29:02.709Z,40.80
2018-04-12T02:29:34.458Z,40.60
2018-04-12T02:30:06.209Z,41.40
2018-04-12T02:30:37.958Z,40.70
2018-04-12T02:31:09.681Z,40.70
2018-04-12T02:31:41.420Z,40.90
2018-04-12T02:32:13.272Z,40.70
2018-04-12T02:32:45.755Z,40.70
2018-04-12T02:33:17.558Z,40.70
2018-04-12T02:33:50.042Z,40.60
2018-04-12T02:34:21.779Z,40.50
2018-04-12T02:34:53.512Z,40.60
2018-04-12T02:35:25.252Z,40.70
2018-04-12T02:35:57.755Z,40.70
2018-04-12T02:36:29.503Z,40.70
2018-04-12T02:37:01.239Z,40.80
2018-04-12T02:37:33.003Z,40.80
2018-04-12T02:38:04.740Z,40.70
2018-04-12T02:38:36.474Z,40.70
2018-04-12T02:39:08.234Z,40.70
2018-04-12T02:39:39.975Z,40.50
2018-04-12T02:40:11.744Z,40.60
2018-04-12T02:40:43.470Z,40.80
2018-04-12T02:41:15.222Z,40.90
2018-04-12T02:41:46.944Z,40.80
2018-04-12T02:42:18.690Z,40.70
2018-04-12T02:42:50.443Z,40.70
2018-04-12T02:43:22.174Z,40.40
2018-04-12T02:43:53.923Z,40.70
2018-04-12T02:44:25.735Z,40.80
2018-04-12T02:44:57.475Z,40.70
2018-04-12T02:45:29.221Z,40.80
2018-04-12T02:46:01.058Z,40.50
2018-04-12T02:46:33.561Z,40.40
2018-04-12T02:47:05.322Z,40.40
2018-04-12T02:47:37.063Z,40.70
2018-04-12T02:48:08.787Z,40.80
2018-04-12T02:48:40.541Z,40.70
2018-04-12T02:49:12.278Z,40.70
2018-04-12T02:49:44.009Z,40.80
2018-04-12T02:50:15.794Z,40.80
2018-04-12T02:50:47.539Z,40.70
2018-04-12T02:51:19.292Z,40.80
2018-04-12T02:51:51.022Z,40.70
2018-04-12T02:52:22.761Z,40.60
2018-04-12T02:52:54.502Z,40.70
2018-04-12T02:53:26.245Z,40.60
2018-04-12T02:53:58.010Z,40.40
2018-04-12T02:54:29.732Z,40.50
2018-04-12T02:55:01.484Z,40.60
2018-04-12T02:55:33.488Z,40.70
2018-04-12T02:56:05.995Z,41.00
2018-04-12T02:56:37.744Z,40.90
2018-04-12T02:57:09.479Z,40.90
2018-04-12T02:57:41.231Z,40.80
2018-04-12T02:58:12.978Z,40.80
2018-04-12T02:58:44.711Z,40.50
2018-04-12T02:59:16.458Z,40.60
2018-04-12T02:59:48.202Z,40.50
2018-04-12T03:00:19.951Z,40.80
2018-04-12T03:00:51.738Z,40.90
2018-04-12T03:01:23.654Z,40.80
2018-04-12T03:01:55.415Z,40.60
2018-04-12T03:02:27.142Z,40.50
2018-04-12T03:02:58.889Z,40.80
2018-04-12T03:03:30.645Z,40.80
2018-04-12T03:04:02.383Z,40.70
2018-04-12T03:04:34.135Z,40.60
2018-04-12T03:05:05.878Z,40.70
2018-04-12T03:05:37.606Z,40.70
2018-04-12T03:06:09.363Z,40.80
2018-04-12T03:06:41.114Z,40.60
2018-04-12T03:07:12.831Z,40.60
2018-04-12T03:07:44.588Z,40.60
2018-04-12T03:08:16.321Z,40.60
2018-04-12T03:08:48.087Z,40.70
2018-04-12T03:09:19.837Z,40.70
2018-04-12T03:09:51.564Z,40.90
2018-04-12T03:10:23.331Z,40.80
2018-04-12T03:10:55.844Z,40.60
2018-04-12T03:11:27.579Z,40.60
2018-04-12T03:11:59.325Z,40.70
2018-04-12T03:12:31.058Z,40.50
2018-04-12T03:13:02.805Z,40.50
2018-04-12T03:13:34.529Z,40.60
2018-04-12T03:14:07.038Z,40.60
2018-04-12T03:14:38.783Z,40.60
2018-04-12T03:15:10.523Z,40.70
2018-04-12T03:15:42.258Z,40.60
2018-04-12T03:16:14.025Z,40.70
2018-04-12T03:16:45.818Z,40.80
2018-04-12T03:17:17.566Z,40.80
2018-04-12T03:17:49.305Z,41.00
2018-04-12T03:18:21.814Z,40.70
2018-04-12T03:18:53.565Z,40.70
2018-04-12T03:19:25.336Z,40.80
2018-04-12T03:19:57.257Z,40.90
2018-04-12T03:20:28.989Z,40.80
2018-04-12T03:21:00.718Z,40.80
2018-04-12T03:21:32.500Z,40.80
2018-04-12T03:22:04.240Z,40.90
2018-04-12T03:22:35.980Z,40.80
2018-04-12T03:23:07.719Z,40.80
2018-04-12T03:23:39.465Z,40.70
2018-04-12T03:24:11.189Z,40.70
2018-04-12T03:24:42.945Z,40.60
2018-04-12T03:25:14.682Z,41.40
2018-04-12T03:25:46.444Z,40.80
2018-04-12T03:26:18.177Z,40.70
2018-04-12T03:26:49.944Z,40.70
2018-04-12T03:27:21.663Z,40.70
2018-04-12T03:27:53.452Z,40.80
2018-04-12T03:28:25.956Z,40.70
2018-04-12T03:28:57.714Z,40.70
2018-04-12T03:29:29.483Z,40.80
2018-04-12T03:30:01.531Z,40.60
2018-04-12T03:30:33.292Z,40.60
2018-04-12T03:31:05.004Z,40.60
2018-04-12T03:31:36.767Z,40.60
2018-04-12T03:32:08.523Z,40.50
2018-04-12T03:32:40.258Z,40.50
2018-04-12T03:33:12.005Z,40.60
2018-04-12T03:33:43.748Z,40.50
2018-04-12T03:34:15.491Z,40.50
2018-04-12T03:34:47.232Z,40.40
2018-04-12T03:35:18.966Z,40.40
2018-04-12T03:35:50.755Z,40.50
2018-04-12T03:36:23.257Z,40.50
2018-04-12T03:36:55.001Z,40.50
2018-04-12T03:37:26.739Z,40.50
2018-04-12T03:37:58.585Z,40.50
2018-04-12T03:38:31.074Z,40.50
2018-04-12T03:39:02.801Z,40.50
2018-04-12T03:39:34.573Z,40.60
2018-04-12T03:40:06.353Z,40.50
2018-04-12T03:40:38.871Z,40.30
2018-04-12T03:41:10.610Z,40.20
2018-04-12T03:41:42.347Z,40.40
2018-04-12T03:42:14.096Z,40.30
2018-04-12T03:42:46.114Z,40.40
2018-04-12T03:43:17.847Z,40.50
2018-04-12T03:43:50.366Z,40.40
2018-04-12T03:44:22.114Z,40.40
2018-04-12T03:44:53.833Z,40.50
2018-04-12T03:45:25.582Z,40.50
2018-04-12T03:45:57.319Z,40.50
2018-04-12T03:46:29.045Z,40.60
2018-04-12T03:47:00.820Z,40.50
2018-04-12T03:47:32.523Z,40.50
2018-04-12T03:48:04.263Z,40.50
2018-04-12T03:48:36.789Z,40.30
2018-04-12T03:49:08.863Z,40.30
2018-04-12T03:49:40.802Z,39.90
2018-04-12T03:50:12.670Z,40.00
2018-04-12T03:50:45.218Z,40.70
2018-04-12T03:51:16.947Z,40.70
2018-04-12T03:51:48.693Z,40.70
2018-04-12T03:52:20.438Z,40.70
2018-04-12T03:52:52.185Z,40.60
2018-04-12T03:53:24.112Z,40.40
2018-04-12T03:53:55.838Z,40.40
2018-04-12T03:54:27.623Z,39.90
2018-04-12T03:54:59.356Z,40.10
2018-04-12T03:55:31.087Z,40.30
2018-04-12T03:56:02.897Z,40.40
2018-04-12T03:56:35.410Z,40.30
2018-04-12T03:57:07.143Z,40.30
2018-04-12T03:57:38.879Z,40.20
2018-04-12T03:58:10.795Z,40.10
2018-04-12T03:58:43.314Z,40.10
2018-04-12T03:59:15.055Z,40.00
2018-04-12T03:59:46.803Z,40.30
2018-04-12T04:00:18.548Z,40.30
2018-04-12T04:01:28.184Z,40.30
2018-04-12T04:01:59.918Z,40.50
2018-04-12T04:02:31.698Z,40.30
2018-04-12T04:03:04.216Z,40.30
2018-04-12T04:03:35.965Z,40.10
2018-04-12T04:04:07.698Z,40.00
2018-04-12T04:04:39.450Z,40.40
2018-04-12T04:05:11.211Z,40.60
2018-04-12T04:05:43.014Z,40.60
2018-04-12T04:06:15.475Z,40.50
2018-04-12T04:06:47.246Z,40.40
2018-04-12T04:07:19.046Z,40.50
2018-04-12T04:07:50.941Z,40.30
2018-04-12T04:08:22.678Z,40.40
2018-04-12T04:08:54.410Z,40.20
2018-04-12T04:09:26.179Z,40.40
2018-04-12T04:09:57.928Z,40.50
2018-04-12T04:10:29.658Z,40.60
2018-04-12T04:11:01.397Z,40.60
2018-04-12T04:11:33.143Z,40.40
2018-04-12T04:12:04.890Z,40.20
2018-04-12T04:12:36.629Z,40.40
2018-04-12T04:13:08.382Z,40.10
2018-04-12T04:13:40.117Z,40.30
2018-04-12T04:14:11.854Z,40.30
2018-04-12T04:14:43.601Z,40.10
2018-04-12T04:15:15.341Z,40.30
2018-04-12T04:15:47.086Z,40.50
2018-04-12T04:16:18.837Z,40.50
2018-04-12T04:16:50.588Z,40.40
2018-04-12T04:17:22.318Z,40.40
2018-04-12T04:17:54.117Z,40.40
2018-04-12T04:18:26.688Z,40.10
2018-04-12T04:18:58.438Z,40.10
2018-04-12T04:19:30.953Z,40.30
2018-04-12T04:20:02.720Z,40.20
2018-04-12T04:20:34.443Z,40.20
2018-04-12T04:21:06.229Z,40.10
2018-04-12T04:21:37.986Z,40.10
2018-04-12T04:22:10.479Z,40.20
2018-04-12T04:22:42.222Z,40.20
2018-04-12T04:23:13.966Z,40.50
2018-04-12T04:23:45.721Z,40.70
2018-04-12T04:24:17.464Z,40.70
2018-04-12T04:24:49.192Z,40.40
2018-04-12T04:25:20.948Z,40.40
2018-04-12T04:25:52.681Z,40.60
2018-04-12T04:26:24.414Z,40.50
2018-04-12T04:26:56.161Z,40.40
2018-04-12T04:27:27.909Z,40.50
2018-04-12T04:27:59.642Z,40.60
2018-04-12T04:28:31.457Z,40.40
2018-04-12T04:29:03.195Z,40.50
2018-04-12T04:29:35.702Z,40.20
2018-04-12T04:30:07.444Z,40.20
2018-04-12T04:30:39.200Z,40.00
2018-04-12T04:31:11.178Z,40.00
2018-04-12T04:31:43.082Z,39.90
2018-04-12T04:32:14.819Z,39.70
2018-04-12T04:32:46.555Z,39.50
2018-04-12T04:33:19.076Z,42.00
2018-04-12T04:33:50.811Z,42.00
2018-04-12T04:34:22.585Z,43.00
2018-04-12T04:34:54.516Z,45.50
2018-04-12T04:35:26.253Z,46.00
2018-04-12T04:35:58.076Z,45.30
2018-04-12T04:36:30.551Z,45.20
2018-04-12T04:37:02.275Z,45.10
2018-04-12T04:37:34.129Z,45.00
2018-04-12T04:38:06.613Z,46.80
2018-04-12T04:38:38.350Z,46.80
2018-04-12T04:39:10.119Z,46.90
2018-04-12T04:39:41.837Z,47.10
2018-04-12T04:40:13.628Z,46.70
2018-04-12T04:40:45.378Z,44.30
2018-04-12T04:41:17.894Z,46.20
2018-04-12T04:41:49.646Z,46.20
2018-04-12T04:42:21.383Z,46.50
2018-04-12T04:42:53.138Z,45.60
2018-04-12T04:43:24.874Z,45.50
2018-04-12T04:43:56.615Z,45.80
2018-04-12T04:44:28.402Z,46.20
2018-04-12T04:45:00.917Z,46.80
2018-04-12T04:45:32.653Z,46.70
2018-04-12T04:46:04.401Z,46.40
2018-04-12T04:46:36.141Z,44.90
2018-04-12T04:47:07.881Z,45.10
2018-04-12T04:47:39.622Z,45.60
2018-04-12T04:48:11.562Z,46.20
2018-04-12T04:48:43.510Z,46.30
2018-04-12T04:49:15.254Z,46.30
2018-04-12T04:49:46.993Z,44.90
2018-04-12T04:50:18.748Z,45.70
2018-04-12T04:50:50.483Z,45.50
2018-04-12T04:51:22.222Z,46.10
2018-04-12T04:51:53.974Z,45.80
2018-04-12T04:52:25.715Z,46.10
2018-04-12T04:52:57.466Z,45.40
2018-04-12T04:53:29.214Z,45.50
2018-04-12T04:54:00.967Z,46.00
2018-04-12T04:54:32.702Z,45.20
2018-04-12T04:55:04.451Z,45.10
2018-04-12T04:55:36.193Z,44.40
2018-04-12T04:56:07.940Z,44.70
2018-04-12T04:56:39.678Z,45.00
2018-04-12T04:57:11.413Z,45.30
2018-04-12T04:57:43.165Z,44.80
2018-04-12T04:58:14.895Z,45.40
2018-04-12T04:58:47.401Z,44.90
2018-04-12T04:59:19.154Z,44.90
2018-04-12T04:59:50.881Z,44.40
2018-04-12T05:00:22.620Z,44.90
2018-04-12T05:00:54.360Z,45.10
2018-04-12T05:01:26.114Z,45.30
2018-04-12T05:01:58.070Z,45.20
2018-04-12T05:02:29.995Z,44.80
2018-04-12T05:03:01.775Z,45.10
2018-04-12T05:03:33.519Z,44.70
2018-04-12T05:04:05.288Z,44.70
2018-04-12T05:04:37.014Z,44.50
2018-04-12T05:05:08.773Z,44.20
2018-04-12T05:05:40.510Z,44.70
2018-04-12T05:06:12.243Z,44.30
2018-04-12T05:06:43.977Z,44.40
2018-04-12T05:07:15.781Z,44.40
2018-04-12T05:07:47.754Z,43.70
2018-04-12T05:08:19.648Z,44.60
2018-04-12T05:08:51.414Z,44.10
2018-04-12T05:09:23.125Z,43.80
2018-04-12T05:09:55.619Z,44.70
2018-04-12T05:10:28.354Z,43.90
2018-04-12T05:11:00.096Z,43.90
2018-04-12T05:11:31.830Z,43.80
2018-04-12T05:12:03.612Z,43.30
2018-04-12T05:12:35.368Z,43.60
2018-04-12T05:13:07.882Z,43.80
2018-04-12T05:13:39.626Z,43.80
2018-04-12T05:14:11.382Z,43.70
2018-04-12T05:14:43.125Z,44.10
2018-04-12T05:15:15.068Z,44.10
2018-04-12T05:15:46.813Z,43.80
2018-04-12T05:16:18.547Z,43.70
2018-04-12T05:16:50.293Z,43.90
2018-04-12T05:17:22.026Z,43.80
2018-04-12T05:17:53.766Z,43.90
2018-04-12T05:18:25.510Z,43.90
2018-04-12T05:18:57.235Z,44.10
2018-04-12T05:19:28.969Z,44.00
2018-04-12T05:20:00.716Z,43.90
2018-04-12T05:20:33.213Z,43.70
2018-04-12T05:21:05.054Z,43.70
2018-04-12T05:21:37.726Z,43.60
2018-04-12T05:22:09.653Z,43.60
2018-04-12T05:22:41.394Z,43.20
2018-04-12T05:23:13.159Z,43.50
2018-04-12T05:23:44.873Z,44.20
2018-04-12T05:24:17.378Z,43.20
2018-04-12T05:24:49.420Z,43.20
2018-04-12T05:25:21.158Z,43.30
2018-04-12T05:25:52.902Z,43.40
2018-04-12T05:26:24.633Z,43.50
2018-04-12T05:26:56.388Z,43.40
2018-04-12T05:27:28.133Z,43.60
2018-04-12T05:27:59.893Z,43.30
2018-04-12T05:28:31.628Z,43.50
2018-04-12T05:29:04.125Z,43.20
2018-04-12T05:29:35.859Z,43.20
2018-04-12T05:30:07.587Z,43.30
2018-04-12T05:30:39.345Z,43.00
2018-04-12T05:31:11.097Z,43.10
2018-04-12T05:31:42.835Z,42.90
2018-04-12T05:32:14.572Z,43.00
2018-04-12T05:32:46.310Z,42.90
2018-04-12T05:33:18.093Z,43.10
2018-04-12T05:33:49.857Z,43.20
2018-04-12T05:34:21.600Z,43.00
2018-04-12T05:34:53.366Z,43.20
2018-04-12T05:35:25.310Z,43.10
2018-04-12T05:35:57.106Z,42.90
2018-04-12T05:36:29.598Z,43.00
2018-04-12T05:37:01.337Z,43.00
2018-04-12T05:37:33.075Z,43.00
2018-04-12T05:38:04.806Z,43.00
2018-04-12T05:38:36.567Z,42.80
2018-04-12T05:39:08.324Z,42.80
2018-04-12T05:39:40.056Z,43.00
2018-04-12T05:40:11.798Z,42.80
2018-04-12T05:40:43.545Z,43.00
2018-04-12T05:41:15.353Z,42.80
2018-04-12T05:41:47.850Z,42.90
2018-04-12T05:42:19.609Z,43.00
2018-04-12T05:42:51.348Z,42.70
2018-04-12T05:43:23.093Z,42.80
2018-04-12T05:43:54.826Z,42.70
2018-04-12T05:44:26.564Z,42.80
2018-04-12T05:44:58.327Z,42.90
2018-04-12T05:45:30.062Z,42.40
2018-04-12T05:46:01.829Z,42.40
2018-04-12T05:46:33.571Z,42.60
2018-04-12T05:47:05.330Z,42.50
2018-04-12T05:47:37.071Z,42.60
2018-04-12T05:48:08.821Z,42.50
2018-04-12T05:48:40.603Z,42.40
2018-04-12T05:49:13.092Z,42.60
2018-04-12T05:49:44.826Z,42.60
2018-04-12T05:50:16.567Z,42.50
2018-04-12T05:50:48.377Z,42.70
2018-04-12T05:51:20.879Z,42.50
2018-04-12T05:51:52.613Z,42.50
2018-04-12T05:52:24.349Z,42.60
2018-04-12T05:52:56.223Z,42.30
2018-04-12T05:53:28.881Z,42.60
2018-04-12T05:54:00.614Z,42.50
2018-04-12T05:54:32.363Z,42.10
2018-04-12T05:55:04.114Z,42.30
2018-04-12T05:55:35.843Z,42.70
2018-04-12T05:56:07.695Z,42.40
2018-04-12T05:56:40.155Z,42.40
2018-04-12T05:57:11.896Z,42.30
2018-04-12T05:57:43.643Z,42.40
2018-04-12T05:58:15.385Z,42.50
2018-04-12T05:58:47.326Z,42.40
2018-04-12T05:59:19.072Z,42.30
2018-04-12T05:59:50.814Z,42.30
2018-04-12T06:00:22.558Z,42.20
2018-04-12T06:00:54.291Z,42.30
2018-04-12T06:01:26.037Z,42.50
2018-04-12T06:01:58.557Z,42.30
2018-04-12T06:02:30.296Z,42.30
2018-04-12T06:03:02.046Z,42.30
2018-04-12T06:03:33.825Z,42.30
2018-04-12T06:04:05.526Z,42.30
2018-04-12T06:04:37.259Z,42.40
2018-04-12T06:05:09.000Z,42.40
2018-04-12T06:05:40.741Z,42.40
2018-04-12T06:06:12.481Z,42.40
2018-04-12T06:06:44.238Z,42.30
2018-04-12T06:07:15.986Z,42.10
2018-04-12T06:07:47.723Z,42.20
2018-04-12T06:08:19.461Z,42.00
2018-04-12T06:08:51.204Z,42.10
2018-04-12T06:09:22.949Z,42.30
2018-04-12T06:09:54.701Z,42.20
2018-04-12T06:10:26.411Z,42.10
2018-04-12T06:10:58.142Z,41.70
2018-04-12T06:11:30.657Z,42.10
2018-04-12T06:12:02.400Z,42.10
2018-04-12T06:12:34.326Z,42.10
2018-04-12T06:13:06.099Z,42.10
2018-04-12T06:13:37.826Z,42.20
2018-04-12T06:14:09.559Z,42.20
2018-04-12T06:14:41.322Z,42.30
2018-04-12T06:15:13.051Z,42.20
2018-04-12T06:15:44.806Z,42.00
2018-04-12T06:16:16.542Z,42.00
2018-04-12T06:16:48.315Z,42.30
2018-04-12T06:17:20.058Z,42.20
2018-04-12T06:17:51.802Z,42.10
2018-04-12T06:18:23.548Z,41.90
2018-04-12T06:18:55.271Z,41.90
2018-04-12T06:19:27.015Z,41.70
2018-04-12T06:19:58.776Z,41.70
2018-04-12T06:20:30.513Z,41.70
2018-04-12T06:21:02.469Z,41.70
2018-04-12T06:21:34.195Z,41.50
2018-04-12T06:22:05.929Z,41.50
2018-04-12T06:22:37.672Z,41.60
2018-04-12T06:23:09.422Z,41.80
2018-04-12T06:23:41.158Z,41.80
2018-04-12T06:24:12.904Z,41.70
2018-04-12T06:24:44.656Z,41.70
2018-04-12T06:25:16.425Z,41.40
2018-04-12T06:25:48.179Z,41.50
2018-04-12T06:26:19.919Z,41.60
2018-04-12T06:26:51.663Z,41.90
2018-04-12T06:27:23.414Z,41.50
2018-04-12T06:27:55.158Z,41.50
2018-04-12T06:28:26.933Z,41.40
2018-04-12T06:28:58.847Z,41.30
2018-04-12T06:29:30.600Z,41.40
2018-04-12T06:30:02.334Z,41.50
2018-04-12T06:30:34.066Z,42.00
2018-04-12T06:31:05.828Z,41.70
2018-04-12T06:31:37.576Z,41.50
2018-04-12T06:32:09.525Z,41.50
2018-04-12T06:32:41.276Z,41.10
2018-04-12T06:33:13.008Z,41.40
2018-04-12T06:33:44.757Z,41.40
2018-04-12T06:34:16.483Z,41.30
2018-04-12T06:34:48.230Z,41.00
2018-04-12T06:35:19.973Z,40.90
2018-04-12T06:35:51.706Z,40.90
2018-04-12T06:36:23.439Z,41.10
2018-04-12T06:36:55.192Z,41.10
2018-04-12T06:37:26.930Z,40.90
2018-04-12T06:37:58.665Z,41.10
2018-04-12T06:38:30.481Z,40.80
2018-04-12T06:39:02.990Z,41.10
2018-04-12T06:39:34.753Z,40.90
2018-04-12T06:40:06.513Z,40.70
2018-04-12T06:40:38.246Z,40.70
2018-04-12T06:41:09.973Z,40.70
2018-04-12T06:41:41.722Z,40.60
2018-04-12T06:42:13.470Z,40.70
2018-04-12T06:42:45.217Z,40.70
2018-04-12T06:43:16.954Z,40.30
2018-04-12T06:43:48.711Z,40.50
2018-04-12T06:44:20.446Z,40.80
2018-04-12T06:44:52.184Z,40.50
2018-04-12T06:45:24.015Z,40.50
2018-04-12T06:45:56.482Z,40.60
2018-04-12T06:46:28.238Z,40.60
2018-04-12T06:46:59.991Z,40.30
2018-04-12T06:47:31.739Z,40.10
2018-04-12T06:48:03.470Z,40.40
2018-04-12T06:48:35.226Z,40.50
2018-04-12T06:49:06.971Z,40.70
2018-04-12T06:49:38.710Z,40.80
2018-04-12T06:50:10.451Z,40.70
2018-04-12T06:50:42.193Z,40.70